Time;durP1;ratioP1;P1;durP2;ratioP2;P2;SDS_P1;SDS_P2;PMS_P1;PMS_P2;Temp;Humidity;BMP_temperature;BMP_pressure;BME280_temperature;BME280_humidity;BME280_pressure;Samples;Min_cycle;Max_cycle;Signal;HPM_P1;HPM_P2
2022/07/05 00:02:09;;;;;;;32.95;5.28;;;;;;;18.40;100.00;98112.81;5038256;28;20051;-57
2022/07/05 00:04:34;;;;;;;33.55;5.20;;;;;;;18.69;100.00;98103.63;5038939;28;20025;-59
2022/07/05 00:07:17;;;;;;;33.05;5.10;;;;;;;18.83;100.00;98102.66;5038506;28;20039;-58
2022/07/05 00:09:54;;;;;;;31.55;5.10;;;;;;;18.63;100.00;98101.41;5038758;28;20672;-57
2022/07/05 00:12:22;;;;;;;35.03;4.90;;;;;;;18.48;100.00;98108.66;5037736;28;20478;-57
2022/07/05 00:14:49;;;;;;;37.13;5.05;;;;;;;18.76;100.00;98106.66;5037906;28;20021;-57
2022/07/05 00:17:14;;;;;;;32.50;4.90;;;;;;;18.59;100.00;98105.25;5038137;28;20045;-57
2022/07/05 00:19:40;;;;;;;31.40;4.97;;;;;;;18.76;100.00;98105.81;5038262;28;20055;-58
2022/07/05 00:22:06;;;;;;;35.53;5.20;;;;;;;18.41;100.00;98109.22;5037424;28;20091;-58
2022/07/05 00:24:31;;;;;;;30.27;4.78;;;;;;;18.44;100.00;98106.34;5038886;28;20044;-58
2022/07/05 00:26:57;;;;;;;33.72;5.13;;;;;;;18.31;100.00;98109.03;5035866;28;20033;-58
2022/07/05 00:29:22;;;;;;;27.60;4.57;;;;;;;18.18;100.00;98109.06;5038785;28;20581;-58
2022/07/05 00:31:48;;;;;;;31.25;4.95;;;;;;;18.11;100.00;98106.00;5037214;28;20041;-58
2022/07/05 00:34:13;;;;;;;35.53;5.28;;;;;;;18.39;100.00;98105.84;5038584;28;20081;-57
2022/07/05 00:36:39;;;;;;;29.90;4.60;;;;;;;18.40;100.00;98108.38;5038074;28;20079;-57
2022/07/05 00:39:05;;;;;;;31.52;4.88;;;;;;;18.13;100.00;98107.69;5038351;28;20462;-57
2022/07/05 00:41:31;;;;;;;32.08;4.90;;;;;;;17.97;100.00;98107.91;5037658;28;20029;-57
2022/07/05 00:44:02;;;;;;;27.38;4.32;;;;;;;18.32;100.00;98107.22;5025488;28;20032;-57
2022/07/05 00:46:28;;;;;;;32.08;4.82;;;;;;;18.27;100.00;98104.94;5037631;28;20032;-58
2022/07/05 00:48:54;;;;;;;32.78;5.20;;;;;;;17.83;100.00;98116.72;5038319;28;20099;-57
2022/07/05 00:51:21;;;;;;;25.60;4.35;;;;;;;18.01;100.00;98122.56;5037686;28;20041;-58
2022/07/05 00:53:47;;;;;;;31.42;4.70;;;;;;;17.76;100.00;98124.25;5038879;28;20491;-58
2022/07/05 00:56:14;;;;;;;29.25;4.70;;;;;;;17.38;100.00;98127.66;5037927;28;20080;-57
2022/07/05 00:58:40;;;;;;;38.38;5.45;;;;;;;17.66;100.00;98128.44;5037819;28;20116;-57
2022/07/05 01:01:08;;;;;;;35.83;5.18;;;;;;;17.41;100.00;98119.56;5037258;28;20688;-57
2022/07/05 01:03:34;;;;;;;35.70;5.32;;;;;;;17.24;100.00;98125.09;5039444;28;20033;-57
2022/07/05 01:06:06;;;;;;;26.38;4.30;;;;;;;17.32;100.00;98122.81;5037586;28;20082;-57
2022/07/05 01:08:33;;;;;;;43.45;5.68;;;;;;;17.33;100.00;98135.03;5038225;28;20036;-58
2022/07/05 01:10:59;;;;;;;27.65;4.38;;;;;;;17.07;100.00;98128.84;5037545;28;20141;-59
2022/07/05 01:13:25;;;;;;;29.80;4.60;;;;;;;17.07;100.00;98129.69;5037849;28;20134;-58
2022/07/05 01:15:52;;;;;;;29.83;4.57;;;;;;;17.48;100.00;98123.47;5037319;28;20090;-58
2022/07/05 01:18:19;;;;;;;33.35;5.00;;;;;;;17.20;100.00;98126.25;5038385;28;20058;-58
2022/07/05 01:20:48;;;;;;;33.65;5.18;;;;;;;16.95;100.00;98126.06;5036632;28;20422;-57
2022/07/05 01:23:13;;;;;;;28.63;4.80;;;;;;;16.51;100.00;98121.00;5038120;28;20063;-57
2022/07/05 01:25:38;;;;;;;34.55;5.07;;;;;;;16.63;100.00;98122.84;5037450;28;20119;-57
2022/07/05 01:28:04;;;;;;;40.05;5.65;;;;;;;16.68;100.00;98118.13;5039058;28;20029;-59
2022/07/05 01:30:32;;;;;;;33.10;5.18;;;;;;;16.44;100.00;98119.69;5036094;28;20036;-57
2022/07/05 01:32:58;;;;;;;37.63;5.50;;;;;;;16.69;100.00;98114.56;5037690;28;20132;-57
2022/07/05 01:35:23;;;;;;;29.90;4.63;;;;;;;17.00;100.00;98120.53;5037652;28;20029;-57
2022/07/05 01:37:50;;;;;;;35.40;4.95;;;;;;;16.87;100.00;98122.25;5037468;28;20533;-57
2022/07/05 01:40:17;;;;;;;41.95;5.78;;;;;;;17.14;100.00;98130.97;5036111;28;20116;-58
2022/07/05 01:42:42;;;;;;;33.30;4.65;;;;;;;17.25;100.00;98127.63;5037661;28;20051;-57
2022/07/05 01:45:08;;;;;;;29.17;4.68;;;;;;;16.91;100.00;98129.03;5037248;28;20708;-60
2022/07/05 01:47:44;;;;;;;38.03;5.03;;;;;;;16.88;100.00;98126.56;5040856;28;20029;-57
2022/07/05 01:50:14;;;;;;;41.88;5.85;;;;;;;16.51;100.00;98126.25;5040582;28;20032;-57
2022/07/05 01:52:43;;;;;;;34.70;5.38;;;;;;;16.22;100.00;98117.56;5041483;28;20551;-57
2022/07/05 01:55:09;;;;;;;32.03;5.15;;;;;;;16.12;100.00;98127.78;5040715;28;20024;-57
2022/07/05 01:57:34;;;;;;;31.63;4.60;;;;;;;16.57;100.00;98131.13;5041686;28;20036;-57
2022/07/05 01:59:59;;;;;;;51.72;6.55;;;;;;;16.78;100.00;98134.22;5040694;28;20036;-58
2022/07/05 02:02:25;;;;;;;33.75;5.05;;;;;;;16.58;100.00;98124.94;5040796;28;20102;-58
2022/07/05 02:04:50;;;;;;;30.65;4.78;;;;;;;16.58;100.00;98130.22;5042570;28;20029;-57
2022/07/05 02:07:16;;;;;;;35.05;5.32;;;;;;;16.62;100.00;98136.97;5040951;28;20713;-57
2022/07/05 02:09:41;;;;;;;35.47;5.03;;;;;;;16.84;100.00;98133.84;5041632;28;20135;-57
2022/07/05 02:12:07;;;;;;;33.00;5.00;;;;;;;16.28;100.00;98130.31;5040176;28;20562;-57
2022/07/05 02:14:33;;;;;;;37.97;5.50;;;;;;;15.69;100.00;98139.09;5042730;28;20072;-59
2022/07/05 02:16:58;;;;;;;31.17;4.95;;;;;;;15.45;100.00;98141.41;5040906;28;20508;-57
2022/07/05 02:19:24;;;;;;;38.33;5.65;;;;;;;15.38;100.00;98137.44;5041322;28;20063;-56
2022/07/05 02:21:49;;;;;;;35.22;5.32;;;;;;;15.42;100.00;98141.59;5040536;28;20033;-57
2022/07/05 02:24:15;;;;;;;34.13;5.03;;;;;;;15.54;100.00;98140.88;5040051;28;20056;-58
2022/07/05 02:26:41;;;;;;;29.77;4.50;;;;;;;15.94;100.00;98141.16;5040850;28;20040;-57
2022/07/05 02:29:06;;;;;;;32.88;5.15;;;;;;;15.40;100.00;98149.56;5041047;28;20028;-57
2022/07/05 02:31:32;;;;;;;41.05;5.80;;;;;;;15.27;100.00;98153.81;5040667;28;20036;-57
2022/07/05 02:33:58;;;;;;;33.95;5.55;;;;;;;15.38;100.00;98150.56;5041370;28;20551;-57
2022/07/05 02:36:24;;;;;;;33.75;5.05;;;;;;;15.25;100.00;98154.84;5040592;28;20048;-57
2022/07/05 02:38:49;;;;;;;27.15;4.43;;;;;;;15.55;100.00;98152.22;5040371;28;20112;-57
2022/07/05 02:41:15;;;;;;;33.60;5.30;;;;;;;15.32;100.00;98156.19;5039752;28;20037;-57
2022/07/05 02:43:40;;;;;;;42.33;5.63;;;;;;;15.12;100.00;98160.81;5041140;28;20071;-57
2022/07/05 02:46:08;;;;;;;28.67;4.95;;;;;;;14.84;100.00;98162.38;5040912;28;20678;-58
2022/07/05 02:48:34;;;;;;;41.58;6.05;;;;;;;15.01;100.00;98168.44;5040334;28;20028;-57
2022/07/05 02:51:00;;;;;;;31.30;4.63;;;;;;;15.18;100.00;98160.47;5039477;28;20033;-58
2022/07/05 02:53:26;;;;;;;37.45;5.43;;;;;;;15.30;100.00;98163.31;5039970;28;20886;-57
2022/07/05 02:55:51;;;;;;;40.47;5.78;;;;;;;15.77;100.00;98162.38;5040439;28;20132;-57
2022/07/05 02:58:17;;;;;;;35.58;5.30;;;;;;;15.03;100.00;98166.59;5040700;28;20686;-58
2022/07/05 03:00:47;;;;;;;39.28;5.60;;;;;;;15.02;100.00;98162.28;5039145;28;20032;-56
2022/07/05 03:03:13;;;;;;;31.70;5.13;;;;;;;14.70;100.00;98164.91;5041200;28;20025;-58
2022/07/05 03:05:38;;;;;;;34.35;5.25;;;;;;;14.78;100.00;98167.13;5040304;28;20044;-58
2022/07/05 03:08:04;;;;;;;36.15;5.38;;;;;;;14.95;100.00;98169.66;5040743;28;20032;-58
2022/07/05 03:10:29;;;;;;;35.05;5.53;;;;;;;14.97;100.00;98166.94;5038648;28;20863;-58
2022/07/05 03:12:55;;;;;;;36.13;5.75;;;;;;;14.58;100.00;98165.59;5040529;28;20059;-57
2022/07/05 03:15:20;;;;;;;39.90;5.90;;;;;;;14.54;100.00;98170.13;5039910;28;20538;-57
2022/07/05 03:17:46;;;;;;;37.03;5.72;;;;;;;14.60;100.00;98174.22;5039893;28;20566;-57
2022/07/05 03:20:11;;;;;;;42.75;6.18;;;;;;;14.69;100.00;98178.13;5038979;28;20032;-57
2022/07/05 03:22:36;;;;;;;34.90;5.68;;;;;;;14.45;100.00;98181.13;5040008;28;20025;-57
2022/07/05 03:25:02;;;;;;;42.45;6.05;;;;;;;14.41;100.00;98184.81;5039563;28;20151;-56
2022/07/05 03:27:28;;;;;;;33.78;5.20;;;;;;;14.70;100.00;98191.16;5058508;28;20044;-57
2022/07/05 03:29:53;;;;;;;42.70;6.18;;;;;;;14.67;100.00;98186.09;5061860;28;20036;-57
2022/07/05 03:32:19;;;;;;;38.75;5.57;;;;;;;14.52;100.00;98192.13;5058987;28;20037;-57
2022/07/05 03:34:44;;;;;;;37.20;5.47;;;;;;;14.62;100.00;98203.88;5059616;28;20025;-57
2022/07/05 03:37:09;;;;;;;39.17;5.88;;;;;;;14.38;100.00;98198.97;5059043;28;20101;-57
2022/07/05 03:39:35;;;;;;;38.72;5.70;;;;;;;15.04;100.00;98202.44;5059512;28;20047;-58
2022/07/05 03:42:00;;;;;;;38.35;5.82;;;;;;;14.55;100.00;98208.56;5058540;28;20072;-58
2022/07/05 03:44:26;;;;;;;32.70;5.65;;;;;;;14.56;100.00;98210.28;5059970;28;20710;-57
2022/07/05 03:46:52;;;;;;;34.25;5.65;;;;;;;14.29;100.00;98223.06;5059200;28;20032;-57
2022/07/05 03:49:17;;;;;;;46.13;6.20;;;;;;;14.42;100.00;98212.78;5059298;28;20019;-56
2022/07/05 03:51:43;;;;;;;40.92;6.22;;;;;;;14.43;100.00;98225.81;5058386;28;20147;-57
2022/07/05 03:54:08;;;;;;;40.67;5.80;;;;;;;14.79;100.00;98216.91;5059488;28;20032;-58
2022/07/05 03:56:33;;;;;;;37.00;5.65;;;;;;;14.76;100.00;98221.47;5058122;28;20535;-57
2022/07/05 03:58:59;;;;;;;35.28;5.78;;;;;;;14.62;100.00;98230.13;5057174;28;20028;-58
2022/07/05 04:01:25;;;;;;;44.20;5.72;;;;;;;15.56;100.00;98220.47;5055093;28;20044;-57
2022/07/05 04:03:51;;;;;;;32.95;5.40;;;;;;;15.15;100.00;98226.31;5053871;28;20181;-57
2022/07/05 04:06:16;;;;;;;36.00;5.50;;;;;;;15.63;100.00;98228.03;5058726;28;20107;-57
2022/07/05 04:08:41;;;;;;;43.05;6.30;;;;;;;15.06;100.00;98233.88;5058282;28;20040;-57
2022/07/05 04:11:09;;;;;;;36.03;5.57;;;;;;;15.27;100.00;98235.28;5057798;28;20047;-57
2022/07/05 04:13:34;;;;;;;36.75;5.55;;;;;;;15.51;100.00;98227.81;5059291;28;20501;-57
2022/07/05 04:15:59;;;;;;;28.83;4.95;;;;;;;15.46;100.00;98232.47;5059283;28;20045;-57
2022/07/05 04:18:26;;;;;;;34.65;5.40;;;;;;;17.13;100.00;98224.19;5059341;28;20028;-59
2022/07/05 04:20:51;;;;;;;31.42;5.18;;;;;;;17.00;100.00;98227.69;5058703;28;20032;-57
2022/07/05 04:23:16;;;;;;;33.00;4.85;;;;;;;18.44;100.00;98222.56;5058953;28;20044;-57
2022/07/05 04:25:42;;;;;;;34.67;5.07;;;;;;;18.48;100.00;98218.75;5058941;28;20037;-57
2022/07/05 04:28:07;;;;;;;25.80;4.65;;;;;;;16.96;100.00;98224.41;5058857;28;20026;-57
2022/07/05 04:30:32;;;;;;;32.22;4.70;;;;;;;17.12;100.00;98226.91;5057496;28;20089;-57
2022/07/05 04:32:58;;;;;;;27.02;4.70;;;;;;;16.67;100.00;98232.34;5063375;28;20122;-58
2022/07/05 04:35:24;;;;;;;25.15;4.50;;;;;;;16.61;100.00;98222.16;5058908;28;20140;-58
2022/07/05 04:37:49;;;;;;;32.70;5.32;;;;;;;16.20;100.00;98238.72;5059086;28;20028;-57
2022/07/05 04:40:15;;;;;;;31.55;5.35;;;;;;;16.04;100.00;98235.31;5057728;28;20639;-57
2022/07/05 04:42:41;;;;;;;25.98;5.10;;;;;;;15.73;100.00;98237.06;5058934;28;20042;-58
2022/07/05 04:45:07;;;;;;;27.13;4.85;;;;;;;15.69;100.00;98238.19;5057142;28;20671;-57
2022/07/05 04:47:34;;;;;;;32.05;5.25;;;;;;;15.67;100.00;98247.94;5059153;28;20789;-57
2022/07/05 04:50:00;;;;;;;45.50;6.88;;;;;;;16.29;100.00;98238.16;5058326;28;20028;-58
2022/07/05 04:52:25;;;;;;;29.55;5.57;;;;;;;17.21;100.00;98241.28;5057738;28;20033;-57
2022/07/05 04:54:51;;;;;;;30.45;4.63;;;;;;;18.24;100.00;98226.56;5059258;28;20028;-57
2022/07/05 04:57:17;;;;;;;23.42;4.30;;;;;;;17.48;100.00;98234.22;5058720;28;20521;-57
2022/07/05 04:59:42;;;;;;;25.85;5.15;;;;;;;17.63;100.00;98235.00;5058844;28;20126;-60
2022/07/05 05:02:08;;;;;;;30.60;5.40;;;;;;;18.54;100.00;98238.59;5056760;28;20071;-57
2022/07/05 05:04:33;;;;;;;31.02;5.75;;;;;;;20.11;100.00;98233.38;5059006;28;20024;-57
2022/07/05 05:06:59;;;;;;;26.02;5.40;;;;;;;20.62;100.00;98237.41;5055439;28;20043;-57
2022/07/05 05:09:24;;;;;;;22.42;4.60;;;;;;;25.09;87.13;98231.25;5058484;28;20048;-57
2022/07/05 05:11:50;;;;;;;24.38;4.80;;;;;;;24.86;71.48;98235.31;5056731;28;20037;-57
2022/07/05 05:14:16;;;;;;;27.73;5.38;;;;;;;26.12;66.40;98223.75;5060594;28;20501;-57
2022/07/05 05:16:41;;;;;;;22.92;4.68;;;;;;;28.57;55.82;98229.91;5058159;28;20048;-59
2022/07/05 05:19:07;;;;;;;24.92;5.00;;;;;;;28.96;51.61;98226.41;5058271;28;20016;-57
2022/07/05 05:21:32;;;;;;;13.95;3.92;;;;;;;29.88;48.97;98232.94;5058138;28;20033;-57
2022/07/05 05:23:57;;;;;;;18.77;4.47;;;;;;;30.27;47.34;98234.59;5057852;28;20021;-57
2022/07/05 05:26:23;;;;;;;23.70;5.05;;;;;;;30.07;44.55;98232.44;5057384;28;20044;-57
2022/07/05 05:28:49;;;;;;;14.63;3.92;;;;;;;31.76;42.79;98235.34;5057500;28;20028;-58
2022/07/05 05:31:14;;;;;;;19.20;4.40;;;;;;;33.03;40.08;98231.69;5056911;28;20048;-58
2022/07/05 05:33:40;;;;;;;17.27;4.10;;;;;;;28.88;46.54;98236.34;5059393;28;20020;-58
2022/07/05 05:36:06;;;;;;;16.17;4.13;;;;;;;31.47;42.86;98225.47;5057784;28;20050;-58
2022/07/05 05:38:31;;;;;;;19.48;4.63;;;;;;;33.04;39.70;98236.03;5058441;28;20024;-56
2022/07/05 05:40:57;;;;;;;13.55;3.53;;;;;;;30.94;44.12;98231.06;5056464;28;20163;-58
2022/07/05 05:43:22;;;;;;;12.85;3.95;;;;;;;32.31;40.21;98235.56;5058248;28;20042;-58
2022/07/05 05:45:48;;;;;;;12.20;3.63;;;;;;;30.96;42.53;98234.41;5058167;28;20549;-57
2022/07/05 05:48:13;;;;;;;14.90;4.22;;;;;;;34.65;37.48;98233.53;5058188;28;20094;-57
2022/07/05 05:50:39;;;;;;;17.15;4.22;;;;;;;34.79;36.99;98234.38;5057010;28;20036;-58
2022/07/05 05:53:05;;;;;;;16.63;4.30;;;;;;;32.79;36.67;98232.16;5058354;28;20064;-57
2022/07/05 05:55:32;;;;;;;14.48;3.58;;;;;;;34.84;34.99;98223.75;5057717;28;20036;-58
2022/07/05 05:58:20;;;;;;;11.73;3.60;;;;;;;30.67;39.70;98235.22;5058018;28;20025;-58
2022/07/05 06:00:50;;;;;;;13.15;3.65;;;;;;;35.78;33.91;98233.09;5056737;28;20059;-59
2022/07/05 06:03:17;;;;;;;14.83;3.93;;;;;;;33.31;38.72;98243.44;5058707;28;20071;-57
2022/07/05 06:05:42;;;;;;;13.15;3.60;;;;;;;33.87;33.90;98236.91;5058023;28;20274;-59
2022/07/05 06:08:07;;;;;;;15.85;3.72;;;;;;;32.92;36.64;98243.06;5057826;28;20036;-57
2022/07/05 06:10:35;;;;;;;13.07;3.33;;;;;;;33.27;37.67;98252.97;5057290;28;20025;-57
2022/07/05 06:13:03;;;;;;;11.23;3.38;;;;;;;33.79;36.47;98246.06;5057477;28;20037;-58
2022/07/05 06:15:29;;;;;;;15.38;3.30;;;;;;;33.02;35.88;98245.38;5057554;28;20097;-58
2022/07/05 06:17:54;;;;;;;14.23;3.38;;;;;;;36.10;31.50;98238.50;5057634;28;20030;-58
2022/07/05 06:20:25;;;;;;;12.50;3.30;;;;;;;36.43;31.11;98242.78;5056360;28;20141;-58
2022/07/05 06:22:51;;;;;;;11.43;3.33;;;;;;;33.83;33.60;98236.50;5057534;28;20017;-58
2022/07/05 06:25:17;;;;;;;12.30;3.30;;;;;;;30.63;38.26;98223.16;5057635;28;20109;-58
2022/07/05 06:27:48;;;;;;;13.25;3.00;;;;;;;33.01;35.20;98235.59;5058486;28;20453;-59
2022/07/05 06:30:16;;;;;;;12.65;2.92;;;;;;;35.45;31.69;98227.84;5056028;28;20089;-57
2022/07/05 06:32:43;;;;;;;11.23;2.83;;;;;;;38.25;27.86;98229.34;5058571;28;20059;-58
2022/07/05 06:35:09;;;;;;;10.18;2.65;;;;;;;37.82;27.83;98234.03;5060693;28;20031;-58
2022/07/05 06:37:53;;;;;;;10.13;2.97;;;;;;;35.34;30.23;98240.22;5060870;28;20028;-58
2022/07/05 06:40:24;;;;;;;12.18;2.97;;;;;;;36.56;28.80;98239.13;5059592;28;20035;-58
2022/07/05 06:42:53;;;;;;;7.38;2.60;;;;;;;35.92;30.20;98233.84;5060840;28;20028;-58
2022/07/05 06:45:19;;;;;;;10.40;3.00;;;;;;;35.81;29.60;98237.25;5060091;28;20531;-57
2022/07/05 06:47:45;;;;;;;12.07;2.80;;;;;;;36.93;28.55;98239.16;5060464;28;20671;-58
2022/07/05 06:50:11;;;;;;;12.68;3.75;;;;;;;36.25;29.27;98243.63;5059719;28;20024;-58
2022/07/05 06:52:39;;;;;;;11.48;2.97;;;;;;;36.85;29.10;98238.44;5062487;28;20019;-57
2022/07/05 06:55:05;;;;;;;13.27;2.80;;;;;;;38.72;27.08;98229.34;5060882;28;20313;-59
2022/07/05 06:57:30;;;;;;;10.98;2.90;;;;;;;37.98;27.62;98232.50;5058952;28;20441;-58
2022/07/05 06:59:56;;;;;;;9.60;3.13;;;;;;;38.02;28.51;98230.97;5058527;28;20027;-59
2022/07/05 07:02:22;;;;;;;11.57;3.03;;;;;;;37.48;29.40;98230.09;5060105;28;20794;-58
2022/07/05 07:04:48;;;;;;;9.90;2.85;;;;;;;36.83;28.67;98228.81;5061321;28;20033;-59
2022/07/05 07:10:00;;;;;;;11.20;3.10;;;;;;;36.14;30.24;98237.00;5060143;28;20089;-57
2022/07/05 07:12:25;;;;;;;12.07;2.83;;;;;;;36.71;29.60;98233.34;5059670;28;20704;-57
2022/07/05 07:14:51;;;;;;;8.18;2.63;;;;;;;35.96;30.46;98239.66;5061156;28;20490;-58
2022/07/05 07:17:17;;;;;;;8.73;2.38;;;;;;;37.90;29.25;98243.72;5060005;28;20775;-58
2022/07/05 07:19:42;;;;;;;10.13;3.20;;;;;;;36.20;30.16;98246.97;5060610;28;20449;-58
2022/07/05 07:22:07;;;;;;;8.98;2.70;;;;;;;35.52;30.99;98245.75;5059468;28;20040;-59
2022/07/05 07:24:33;;;;;;;15.60;2.87;;;;;;;35.86;30.21;98246.41;5060669;28;20451;-58
2022/07/05 07:27:04;;;;;;;12.50;3.08;;;;;;;34.37;32.70;98240.06;5061042;28;20816;-58
2022/07/05 07:29:35;;;;;;;8.90;2.88;;;;;;;35.99;29.75;98239.19;5060270;28;20063;-58
2022/07/05 07:32:01;;;;;;;8.18;2.42;;;;;;;37.94;27.50;98242.22;5059086;28;20064;-58
2022/07/05 07:34:27;;;;;;;9.98;2.88;;;;;;;35.57;29.16;98242.41;5059723;28;20032;-57
2022/07/05 07:36:54;;;;;;;13.43;2.80;;;;;;;37.59;28.03;98238.31;5059128;28;20444;-58
2022/07/05 07:39:20;;;;;;;7.88;2.70;;;;;;;37.93;27.72;98237.81;5060247;28;20032;-58
2022/07/05 07:41:46;;;;;;;12.20;2.78;;;;;;;37.87;26.90;98227.88;5058882;28;20387;-58
2022/07/05 07:44:11;;;;;;;8.98;2.45;;;;;;;38.54;26.32;98238.47;5057906;28;20703;-59
2022/07/05 07:46:39;;;;;;;8.27;2.40;;;;;;;39.53;25.29;98234.84;5060093;28;20110;-58
2022/07/05 07:49:04;;;;;;;16.38;3.28;;;;;;;37.45;26.88;98236.84;5059603;28;20021;-58
2022/07/05 07:51:30;;;;;;;28.73;3.92;;;;;;;38.71;26.10;98227.69;5058741;28;20036;-60
2022/07/05 07:53:56;;;;;;;31.25;3.75;;;;;;;39.14;26.62;98226.44;5059717;28;20048;-58
2022/07/05 07:56:21;;;;;;;23.52;3.53;;;;;;;40.07;24.38;98229.78;5060460;28;20152;-59
2022/07/05 07:58:47;;;;;;;13.90;2.67;;;;;;;39.82;25.06;98229.34;5059122;28;20297;-59
2022/07/05 08:01:13;;;;;;;11.20;2.72;;;;;;;39.76;24.45;98219.38;5057884;28;20043;-58
2022/07/05 08:03:39;;;;;;;12.45;2.33;;;;;;;38.29;25.22;98227.81;5059530;28;20031;-58
2022/07/05 08:06:07;;;;;;;10.18;2.67;;;;;;;37.93;25.43;98226.94;5059547;28;20457;-58
2022/07/05 08:08:33;;;;;;;9.20;3.00;;;;;;;40.06;23.65;98224.56;5057979;28;20513;-59
2022/07/05 08:10:59;;;;;;;6.50;2.30;;;;;;;37.26;27.29;98227.91;5058727;28;20502;-58
2022/07/05 08:13:25;;;;;;;11.57;2.90;;;;;;;39.12;25.43;98223.13;5058941;28;20040;-58
2022/07/05 08:15:50;;;;;;;11.52;2.80;;;;;;;38.71;25.85;98222.22;5059930;28;20037;-59
2022/07/05 08:23:43;;;;;;;7.47;2.38;;;;;;;36.56;25.56;98218.22;5059272;28;20437;-58
2022/07/05 08:26:08;;;;;;;7.05;2.25;;;;;;;37.67;24.56;98218.13;5058317;28;20036;-58
2022/07/05 08:28:33;;;;;;;9.35;2.70;;;;;;;37.43;24.14;98214.47;5057603;28;20037;-58
2022/07/05 08:30:59;;;;;;;8.27;2.15;;;;;;;38.45;23.24;98215.38;5060322;28;20036;-57
2022/07/05 08:33:24;;;;;;;10.68;3.15;;;;;;;38.25;23.49;98229.34;5056165;28;20031;-59
2022/07/05 08:35:49;;;;;;;7.00;2.08;;;;;;;38.36;23.98;98214.91;5055932;28;20576;-59
2022/07/05 08:38:15;;;;;;;9.77;2.50;;;;;;;38.92;22.70;98221.59;5058866;28;20036;-58
2022/07/05 08:40:45;;;;;;;11.77;2.60;;;;;;;37.49;24.35;98220.88;5056412;28;20040;-58
2022/07/05 08:43:14;;;;;;;12.35;2.85;;;;;;;38.88;23.66;98223.16;5059126;28;20446;-58
2022/07/05 08:45:43;;;;;;;12.25;2.85;;;;;;;38.45;24.59;98216.19;5057837;28;20044;-59
2022/07/05 08:48:09;;;;;;;15.63;2.80;;;;;;;36.95;25.70;98218.03;5056313;28;20144;-57
2022/07/05 08:50:37;;;;;;;13.00;2.70;;;;;;;37.03;26.32;98217.72;5054725;28;20044;-58
2022/07/05 08:53:04;;;;;;;10.05;2.53;;;;;;;37.32;25.66;98216.09;5059042;28;20094;-57
2022/07/05 08:55:32;;;;;;;11.48;2.45;;;;;;;36.46;25.35;98220.63;5058067;28;20059;-59
2022/07/05 08:57:57;;;;;;;10.35;2.50;;;;;;;38.28;25.17;98210.66;5058658;28;20455;-58
2022/07/05 09:00:22;;;;;;;10.90;2.80;;;;;;;34.96;26.42;98216.63;5056826;28;20059;-59
2022/07/05 09:02:50;;;;;;;12.88;2.88;;;;;;;36.64;25.45;98219.81;5057682;28;20024;-58
2022/07/05 09:05:18;;;;;;;13.07;2.70;;;;;;;36.92;25.43;98210.31;5058388;28;20028;-58
2022/07/05 09:07:51;;;;;;;8.70;2.35;;;;;;;36.64;25.29;98215.19;5059339;28;20021;-58
2022/07/05 09:10:19;;;;;;;10.98;2.72;;;;;;;36.07;26.86;98214.50;5056905;28;20572;-58
2022/07/05 09:12:45;;;;;;;10.40;2.60;;;;;;;36.92;25.24;98205.72;5058778;28;20668;-59
2022/07/05 09:15:11;;;;;;;10.45;2.50;;;;;;;35.63;26.82;98217.09;5057590;28;20474;-59
2022/07/05 09:17:45;;;;;;;10.68;2.55;;;;;;;36.31;26.01;98226.41;5057802;28;20532;-58
2022/07/05 09:20:13;;;;;;;19.17;3.67;;;;;;;36.25;26.58;98222.72;5056312;28;20024;-58
2022/07/05 09:22:42;;;;;;;11.10;2.50;;;;;;;37.64;25.73;98215.88;5058748;28;20028;-58
2022/07/05 09:25:14;;;;;;;11.50;2.70;;;;;;;36.79;26.01;98214.03;5058163;28;20146;-58
2022/07/05 09:28:03;;;;;;;12.68;2.58;;;;;;;35.85;26.27;98216.75;5058522;28;20704;-58
2022/07/05 09:30:41;;;;;;;9.45;2.58;;;;;;;36.76;25.83;98223.47;5056765;28;20052;-58
2022/07/05 09:33:16;;;;;;;13.55;3.13;;;;;;;36.13;26.07;98219.03;5058005;28;20037;-58
2022/07/05 09:35:57;;;;;;;10.38;2.53;;;;;;;37.04;25.16;98220.19;5058323;28;20040;-59
2022/07/05 09:38:24;;;;;;;13.73;2.72;;;;;;;36.24;25.89;98215.59;5057937;28;20040;-59
2022/07/05 09:40:50;;;;;;;12.45;2.65;;;;;;;36.53;25.90;98218.66;5057558;28;20036;-58
2022/07/05 09:43:18;;;;;;;13.75;2.83;;;;;;;36.81;26.56;98220.06;5061120;28;20024;-58
2022/07/05 09:46:03;;;;;;;11.35;2.67;;;;;;;36.93;26.16;98223.69;5057610;28;20086;-58
2022/07/05 09:48:30;;;;;;;14.60;2.80;;;;;;;37.40;24.87;98223.91;5057958;28;20028;-58
2022/07/05 09:51:12;;;;;;;13.30;2.90;;;;;;;36.56;25.82;98223.66;5057125;28;20036;-58
2022/07/05 09:53:49;;;;;;;12.93;2.80;;;;;;;37.58;25.50;98219.50;5058873;28;20024;-59
2022/07/05 09:56:15;;;;;;;10.05;2.72;;;;;;;33.64;27.99;98216.47;5057264;28;20052;-58
2022/07/05 09:58:41;;;;;;;15.63;3.45;;;;;;;35.80;26.92;98220.13;5058457;28;20035;-58
2022/07/05 10:01:29;;;;;;;13.35;3.03;;;;;;;35.34;27.09;98215.81;5058625;28;20037;-58
2022/07/05 10:04:04;;;;;;;13.05;2.95;;;;;;;33.36;29.62;98213.91;5058009;28;20058;-57
2022/07/05 10:06:32;;;;;;;17.13;3.38;;;;;;;34.25;29.27;98210.09;5056840;28;20064;-59
2022/07/05 10:08:58;;;;;;;15.27;3.28;;;;;;;33.97;29.70;98221.94;5060435;28;20568;-57
2022/07/05 10:11:24;;;;;;;16.60;3.42;;;;;;;32.42;30.00;98224.25;5058897;28;20522;-57
2022/07/05 10:13:53;;;;;;;14.05;2.95;;;;;;;31.92;31.52;98220.72;5061697;28;20063;-57
2022/07/05 10:16:21;;;;;;;15.70;3.15;;;;;;;30.99;31.46;98217.03;5061505;28;20139;-57
2022/07/05 10:18:51;;;;;;;20.25;3.17;;;;;;;33.01;30.37;98220.25;5060560;28;20271;-58
2022/07/05 10:21:17;;;;;;;16.10;3.08;;;;;;;33.74;28.50;98221.50;5060492;28;20836;-57
2022/07/05 10:23:47;;;;;;;18.35;3.50;;;;;;;34.06;28.65;98213.59;5061670;28;20051;-57
2022/07/05 10:26:14;;;;;;;17.52;3.10;;;;;;;35.07;27.18;98221.34;5061405;28;20044;-57
2022/07/05 10:28:44;;;;;;;20.27;3.72;;;;;;;34.68;27.29;98228.56;5060525;28;20036;-58
2022/07/05 10:31:11;;;;;;;15.30;3.08;;;;;;;34.03;27.30;98232.97;5059908;28;20848;-58
2022/07/05 10:33:37;;;;;;;16.13;3.17;;;;;;;34.64;27.09;98227.28;5060750;28;20099;-58
2022/07/05 10:36:04;;;;;;;14.32;3.05;;;;;;;35.07;25.94;98232.19;5060360;28;20043;-58
2022/07/05 10:38:30;;;;;;;14.23;2.83;;;;;;;35.29;27.09;98221.03;5061084;28;20414;-58
2022/07/05 10:40:59;;;;;;;18.30;3.30;;;;;;;35.33;26.98;98220.41;5059622;28;20120;-57
2022/07/05 10:43:25;;;;;;;12.93;2.83;;;;;;;33.47;27.40;98221.44;5061243;28;20089;-58
2022/07/05 10:45:51;;;;;;;20.00;3.65;;;;;;;34.03;27.79;98220.28;5059620;28;20036;-58
2022/07/05 10:48:26;;;;;;;17.08;3.33;;;;;;;32.18;29.65;98219.28;5060832;28;20035;-57
2022/07/05 10:50:52;;;;;;;17.73;3.30;;;;;;;33.36;29.40;98224.72;5059507;28;20818;-57
2022/07/05 10:53:21;;;;;;;15.38;3.10;;;;;;;32.04;29.58;98219.22;5060746;28;20577;-57
2022/07/05 10:56:11;;;;;;;15.70;3.08;;;;;;;34.09;27.87;98218.59;5060945;28;20067;-57
2022/07/05 10:58:47;;;;;;;18.08;3.38;;;;;;;33.43;29.12;98225.56;5048296;28;20028;-57
2022/07/05 11:01:12;;;;;;;16.10;3.25;;;;;;;32.11;29.55;98213.88;5059436;28;20394;-57
2022/07/05 11:03:46;;;;;;;17.30;3.30;;;;;;;31.65;29.52;98217.81;5058701;28;20188;-58
2022/07/05 11:06:25;;;;;;;17.35;3.40;;;;;;;32.40;29.38;98223.59;5061024;28;20043;-58
2022/07/05 11:08:57;;;;;;;20.13;3.65;;;;;;;31.38;30.74;98216.66;5057670;28;20506;-57
2022/07/05 11:11:33;;;;;;;19.10;3.45;;;;;;;30.80;31.89;98221.09;5058057;28;20051;-58
2022/07/05 11:14:04;;;;;;;18.80;3.40;;;;;;;29.80;31.23;98223.09;5057171;28;20103;-58
2022/07/05 11:16:33;;;;;;;15.10;2.92;;;;;;;30.65;30.74;98218.44;5058126;28;20051;-57
2022/07/05 11:19:12;;;;;;;18.63;3.38;;;;;;;31.53;29.47;98218.50;5060898;28;20090;-57
2022/07/05 11:21:42;;;;;;;19.17;3.50;;;;;;;31.96;28.20;98216.59;5058990;28;20032;-59
2022/07/05 11:24:29;;;;;;;19.90;3.65;;;;;;;30.85;28.00;98205.22;5060281;28;20020;-57
2022/07/05 11:26:58;;;;;;;18.45;3.33;;;;;;;30.08;30.13;98201.00;5059501;28;20036;-58
2022/07/05 11:29:43;;;;;;;17.00;3.15;;;;;;;31.67;30.37;98206.78;5058979;28;20048;-57
2022/07/05 11:32:13;;;;;;;20.80;3.72;;;;;;;32.97;29.43;98210.03;5058600;28;20112;-58